Foz do Iguacu, Brazil
Current Conditions -  °F | °C
As of 4:00 AM on Wednesday 22 Oct 2014 (Local Time) from SBFI Reporting Station
Clear Clear  
Wind Chill: 70°   Ceiling: Unl
Heat Index: 70°   Visibility: 6mi
Dew Point: 59°   Wind: 12mph
Humidity: 68%   Direction: 100°E
Pressure: 30"   Gusts: NA
Location:  25.55°S, 54.58°W
Report Text: SBFI 220600Z 10010KT CAVOK 21/15 Q1016
Loading
Personal Weather Stations






























Interactive Weather Map
Tropical Storm Tracking
New forecast layout! Learn more

10-Day Weather Forecast

Advertisements
Track Severe Weather on mobile